Quick Links (Output Below):   Max & Min Temps   /   Climate Reports   /   Zone Forecasts
River Forecasts   /   Forestry Forecasts   /   Aviation Forecasts   /   Radars   /   Features

Terminal Aerodrome Forecast (Arkadelphia)

Pick a Site:
Arkadelphia | El Dorado | Fayetteville | Fort Smith | Harrison | Highfill | Hot Springs | Jonesboro
Little Rock | Monticello | Mountain Home | Pine Bluff | Texarkana
 Forecast 

KADF 171303Z 1713/1812 04004KT P6SM SCT012
     FM171500 12003KT P6SM SCT020
     FM171800 21004KT P6SM SCT035
     FM180000 VRB03KT P6SM BKN250=


 Latest METARs (Observations) 
How to Decode METARs
15Z KADF 171456Z AUTO 00000KT 6SM BR OVC008 21/19 A3002 RMK AO2 51008
         T02050188 OVC V BKN SLP179 $
         
14Z KADF 171356Z AUTO 07003KT 7SM OVC010 20/18 A3002 RMK AO2 T02000183
         SLP177 $
         
13Z KADF 171256Z AUTO 04004KT 8SM CLR 19/18 A3001 RMK AO2 T01880177
         SLP176 $
         
12Z KADF 171156Z AUTO 04004KT 8SM CLR 18/18 A3000 RMK AO2 56005
         T01830177 10211 20183 SLP172 $
         
11Z KADF 171056Z AUTO 04004KT 8SM CLR 19/18 A3000 RMK AO2 T01880183
         SLP172 $
         
10Z KADF 170956Z AUTO 04004KT 7SM CLR 19/19 A3001 RMK AO2 T01940188
         SLP174 $
         
09Z KADF 170856Z AUTO 04004KT 8SM CLR 20/19 A3002 RMK AO2 56009
         T02000194 SLP176 $
         
08Z KADF 170756Z AUTO 04004KT 7SM CLR 21/20 A3003 RMK AO2 T02050200
         SLP181 $
         
07Z KADF 170656Z AUTO 04003KT 8SM CLR 21/21 A3004 RMK AO2 T02110205
         SLP183 $
         
06Z KADF 170556Z AUTO 00000KT 7SM CLR 21/21 A3004 RMK AO2 58002
         T02110205 10283 20211 SLP186 $
         
***** Today's Observations (Above) *****


Back to Main Page
http://www.srh.noaa.gov/lzk/qfcst.php

USA.gov is the U.S. government's official web portal to all federal, state and local government web resources and services.